Time;durP1;ratioP1;P1;durP2;ratioP2;P2;SDS_P1;SDS_P2;PMS_P1;PMS_P2;Temp;Humidity;BMP_temperature;BMP_pressure;BME280_temperature;BME280_humidity;BME280_pressure;Samples;Min_cycle;Max_cycle;Signal;HPM_P1;HPM_P2
2023/04/30 00:00:57;;;;;;;;;2.00;1.00;;;;;21.62;46.39;100864.58;110189;1264;19991;-42
2023/04/30 00:03:32;;;;;;;;;2.00;2.00;;;;;21.61;46.25;100862.84;110179;1249;21110;-41
2023/04/30 00:05:59;;;;;;;;;2.00;2.00;;;;;21.61;46.32;100861.77;110178;1250;21969;-42
2023/04/30 00:08:27;;;;;;;;;2.00;2.00;;;;;21.61;46.45;100862.47;110181;1250;21221;-41
2023/04/30 00:10:55;;;;;;;;;4.00;2.00;;;;;21.60;46.40;100862.38;110180;1264;19315;-42
2023/04/30 00:13:22;;;;;;;;;2.00;2.00;;;;;21.60;46.50;100860.87;110181;1265;19647;-40
2023/04/30 00:15:50;;;;;;;;;2.00;2.00;;;;;21.61;46.38;100864.10;110187;1264;18732;-43
2023/04/30 00:18:17;;;;;;;;;2.00;2.00;;;;;21.60;46.29;100867.08;110117;1264;19520;-46
2023/04/30 00:20:44;;;;;;;;;1.00;1.00;;;;;21.60;46.16;100866.36;110256;1256;19631;-41
2023/04/30 00:23:12;;;;;;;;;2.00;2.00;;;;;21.60;46.27;100876.17;110285;1264;18600;-42
2023/04/30 00:25:39;;;;;;;;;1.00;1.00;;;;;21.60;46.29;100879.46;110280;1251;22326;-46
2023/04/30 00:28:07;;;;;;;;;2.00;2.00;;;;;21.61;46.18;100883.40;110210;1264;19807;-41
2023/04/30 00:30:34;;;;;;;;;1.00;1.00;;;;;21.58;46.26;100881.30;110204;1264;18601;-43
2023/04/30 00:33:02;;;;;;;;;2.00;2.00;;;;;21.59;46.27;100892.45;110206;1250;20787;-40
2023/04/30 00:35:29;;;;;;;;;1.00;1.00;;;;;21.60;46.14;100891.49;110181;1251;19718;-42
2023/04/30 00:37:57;;;;;;;;;2.00;2.00;;;;;21.60;46.30;100900.15;110182;1253;19032;-41
2023/04/30 00:40:24;;;;;;;;;2.00;2.00;;;;;21.61;46.10;100899.36;110202;1257;20652;-43
2023/04/30 00:42:54;;;;;;;;;2.00;2.00;;;;;21.61;46.18;100903.92;110195;1264;19583;-41
2023/04/30 00:45:22;;;;;;;;;1.00;1.00;;;;;21.60;46.31;100905.05;110217;1264;18619;-41
2023/04/30 00:47:49;;;;;;;;;1.00;1.00;;;;;21.59;46.28;100907.17;110184;1250;22493;-43
2023/04/30 00:50:17;;;;;;;;;2.00;2.00;;;;;21.59;46.21;100906.26;110239;1251;19625;-41
2023/04/30 00:52:44;;;;;;;;;2.00;2.00;;;;;21.60;46.13;100914.78;110202;1249;21254;-42
2023/04/30 00:55:12;;;;;;;;;2.00;2.00;;;;;21.59;46.29;100917.92;110190;1265;19356;-41
2023/04/30 00:57:39;;;;;;;;;1.00;1.00;;;;;21.60;46.24;100919.79;110142;1265;19693;-45
2023/04/30 01:00:09;;;;;;;;;1.00;1.00;;;;;21.61;46.07;100923.77;110129;1265;22653;-42
2023/04/30 01:02:37;;;;;;;;;1.00;1.00;;;;;21.58;46.28;100923.27;110220;1251;20779;-41
2023/04/30 01:05:05;;;;;;;;;1.50;1.50;;;;;21.59;46.18;100929.21;110186;1264;19545;-42
2023/04/30 01:07:32;;;;;;;;;1.00;1.00;;;;;21.59;46.25;100932.28;110220;1265;22184;-41
2023/04/30 01:09:59;;;;;;;;;4.00;2.00;;;;;21.59;46.18;100933.54;110204;1250;20851;-43
2023/04/30 01:12:27;;;;;;;;;2.00;2.00;;;;;21.59;46.01;100935.41;110193;1265;19870;-41
2023/04/30 01:14:54;;;;;;;;;2.00;2.00;;;;;21.60;46.18;100940.05;110213;1264;18625;-44
2023/04/30 01:17:22;;;;;;;;;1.00;1.00;;;;;21.59;46.06;100943.25;110187;1249;20794;-41
2023/04/30 01:19:49;;;;;;;;;2.00;2.00;;;;;21.59;46.13;100941.45;110195;1258;22443;-45
2023/04/30 01:22:17;;;;;;;;;1.33;1.33;;;;;21.59;46.22;100947.38;110181;1264;20201;-42
2023/04/30 01:24:44;;;;;;;;;1.00;1.00;;;;;21.59;46.10;100949.42;110162;1250;20816;-42
2023/04/30 01:27:12;;;;;;;;;4.00;2.00;;;;;21.58;46.11;100949.66;110200;1265;18377;-41
2023/04/30 01:29:39;;;;;;;;;1.00;1.00;;;;;21.58;46.19;100954.57;110196;1264;20011;-42
2023/04/30 01:32:06;;;;;;;;;2.00;2.00;;;;;21.58;46.10;100959.48;110187;1250;22323;-40
2023/04/30 01:34:34;;;;;;;;;2.00;2.00;;;;;21.58;45.92;100954.23;110203;1264;19080;-42
2023/04/30 01:37:01;;;;;;;;;1.00;1.00;;;;;21.57;46.19;100958.83;110218;1250;18788;-40
2023/04/30 01:39:29;;;;;;;;;4.00;2.00;;;;;21.58;46.05;100961.55;110200;1264;20851;-41
2023/04/30 01:41:56;;;;;;;;;1.00;1.00;;;;;21.57;46.04;100966.73;110190;1264;18407;-42
2023/04/30 01:44:24;;;;;;;;;1.00;1.00;;;;;21.57;46.03;100970.05;110180;1265;18700;-40
2023/04/30 01:46:51;;;;;;;;;1.00;1.00;;;;;21.55;46.11;100969.65;110195;1256;22091;-41
2023/04/30 01:49:19;;;;;;;;;1.00;1.00;;;;;21.56;46.02;100971.42;110157;1250;24057;-41
2023/04/30 01:51:46;;;;;;;;;1.00;1.00;;;;;21.56;46.15;100972.44;110209;1264;19963;-43
2023/04/30 01:54:13;;;;;;;;;1.00;1.00;;;;;21.56;46.14;100979.15;110204;1248;19322;-41
2023/04/30 01:56:41;;;;;;;;;1.00;1.00;;;;;21.56;46.08;100978.60;110198;1265;18275;-41
2023/04/30 01:59:08;;;;;;;;;2.00;2.00;;;;;21.57;45.93;100978.16;110181;1249;18554;-41
2023/04/30 02:01:36;;;;;;;;;2.00;2.00;;;;;21.57;45.97;100980.30;110194;1250;20760;-42
2023/04/30 02:04:03;;;;;;;;;1.00;1.00;;;;;21.58;45.92;100984.27;110193;1264;18514;-42
2023/04/30 02:06:31;;;;;;;;;2.00;2.00;;;;;21.57;46.06;100977.95;110232;1256;21915;-41
2023/04/30 02:09:02;;;;;;;;;1.00;1.00;;;;;21.57;46.03;100982.05;110144;1249;20725;-42
2023/04/30 02:11:29;;;;;;;;;3.00;1.00;;;;;21.56;46.16;100981.95;110244;1264;20007;-44
2023/04/30 02:13:56;;;;;;;;;1.50;1.50;;;;;21.57;46.08;100985.97;110181;1264;22304;-42
2023/04/30 02:16:24;;;;;;;;;2.00;2.00;;;;;21.57;45.93;100992.89;110213;1256;21111;-43
2023/04/30 02:18:51;;;;;;;;;1.00;1.00;;;;;21.57;45.94;100992.75;110185;1264;21657;-42
2023/04/30 02:21:19;;;;;;;;;2.00;1.00;;;;;21.57;45.98;100994.55;110206;1250;20355;-41
2023/04/30 02:23:46;;;;;;;;;1.00;1.00;;;;;21.57;45.92;100991.66;110202;1250;20764;-41
2023/04/30 02:26:14;;;;;;;;;1.00;1.00;;;;;21.56;46.04;100995.01;110146;1265;19599;-42
2023/04/30 02:28:41;;;;;;;;;1.00;1.00;;;;;21.56;46.09;100997.89;110109;1265;20290;-41
2023/04/30 02:31:09;;;;;;;;;2.00;2.00;;;;;21.56;46.10;101005.20;110214;1264;19457;-41
2023/04/30 02:33:36;;;;;;;;;1.00;1.00;;;;;21.56;45.93;101004.29;110237;1264;18323;-41
2023/04/30 02:36:04;;;;;;;;;1.00;1.00;;;;;21.55;45.84;101010.73;110186;1265;22704;-41
2023/04/30 02:38:31;;;;;;;;;1.00;1.00;;;;;21.56;45.95;101011.58;110168;1265;20729;-45
2023/04/30 02:40:58;;;;;;;;;1.00;1.00;;;;;21.55;45.85;101011.15;110195;1256;19608;-41
2023/04/30 02:43:26;;;;;;;;;1.00;1.00;;;;;21.56;45.84;101017.45;110179;1264;19995;-42
2023/04/30 02:45:53;;;;;;;;;1.00;1.00;;;;;21.54;46.02;101018.86;110183;1251;21077;-42
2023/04/30 02:48:21;;;;;;;;;1.00;1.00;;;;;21.54;45.93;101014.36;110140;1264;19523;-42
2023/04/30 02:50:48;;;;;;;;;1.00;1.00;;;;;21.55;46.04;101020.77;110223;1250;20068;-41
2023/04/30 02:53:16;;;;;;;;;1.00;1.00;;;;;21.54;46.04;101019.73;110207;1251;23214;-42
2023/04/30 02:55:43;;;;;;;;;1.00;1.00;;;;;21.54;45.80;101021.80;110221;1264;18278;-42
2023/04/30 02:58:12;;;;;;;;;2.00;2.00;;;;;21.54;46.06;101027.27;110193;1251;21375;-42
2023/04/30 03:00:39;;;;;;;;;1.00;1.00;;;;;21.55;46.05;101028.30;110206;1248;21832;-42
2023/04/30 03:03:07;;;;;;;;;1.00;1.00;;;;;21.54;45.85;101029.77;110190;1264;19577;-41
2023/04/30 03:05:34;;;;;;;;;1.50;1.00;;;;;21.54;45.93;101032.66;110176;1250;19984;-43
2023/04/30 03:08:02;;;;;;;;;1.00;1.00;;;;;21.55;45.80;101034.10;110170;1251;20785;-40
2023/04/30 03:10:29;;;;;;;;;1.00;1.00;;;;;21.55;46.03;101032.27;110192;1251;19672;-43
2023/04/30 03:12:56;;;;;;;;;1.00;1.00;;;;;21.54;45.90;101036.66;110149;1256;22626;-41
2023/04/30 03:15:24;;;;;;;;;1.00;1.00;;;;;21.55;45.97;101038.42;110191;1264;19355;-41
2023/04/30 03:17:51;;;;;;;;;2.00;2.00;;;;;21.54;46.03;101035.98;110178;1251;19870;-40
2023/04/30 03:20:19;;;;;;;;;1.00;1.00;;;;;21.54;45.98;101038.53;110127;1265;18844;-40
2023/04/30 03:22:46;;;;;;;;;1.00;1.00;;;;;21.54;45.89;101045.11;110154;1265;19365;-42
2023/04/30 03:25:14;;;;;;;;;2.00;2.00;;;;;21.53;45.93;101048.80;110159;1251;19601;-40
2023/04/30 03:27:41;;;;;;;;;1.00;1.00;;;;;21.54;46.02;101050.48;110185;1264;20154;-40
2023/04/30 03:30:09;;;;;;;;;1.00;1.00;;;;;21.54;45.72;101055.79;110181;1250;23090;-41
2023/04/30 03:32:37;;;;;;;;;1.00;1.00;;;;;21.55;45.64;101054.08;110174;1264;22018;-45
2023/04/30 03:35:05;;;;;;;;;1.00;1.00;;;;;21.54;45.82;101061.73;110223;1250;19996;-42
2023/04/30 03:37:32;;;;;;;;;1.00;1.00;;;;;21.54;45.74;101059.60;110173;1250;20744;-46
2023/04/30 03:40:00;;;;;;;;;1.00;1.00;;;;;21.54;45.81;101058.13;110148;1264;18464;-41
2023/04/30 03:42:27;;;;;;;;;1.00;1.00;;;;;21.53;45.89;101062.23;110186;1265;19807;-41
2023/04/30 03:44:55;;;;;;;;;1.00;1.00;;;;;21.54;45.81;101064.34;110214;1256;19359;-45
2023/04/30 03:47:22;;;;;;;;;2.00;2.00;;;;;21.54;45.91;101062.77;110206;1264;18420;-41
2023/04/30 03:49:53;;;;;;;;;1.00;1.00;;;;;21.54;45.61;101066.35;110229;1251;20061;-44
2023/04/30 03:52:21;;;;;;;;;1.00;1.00;;;;;21.54;45.70;101070.16;110211;1264;22623;-41
2023/04/30 03:54:48;;;;;;;;;1.00;1.00;;;;;21.54;45.59;101077.84;110231;1265;23015;-41
2023/04/30 03:57:16;;;;;;;;;1.00;1.00;;;;;21.55;45.69;101085.16;110194;1265;18625;-40
2023/04/30 03:59:43;;;;;;;;;1.00;1.00;;;;;21.54;45.70;101087.48;110171;1249;20610;-39
2023/04/30 04:02:11;;;;;;;;;1.50;1.00;;;;;21.54;45.58;101088.41;110215;1264;19856;-41
2023/04/30 04:04:38;;;;;;;;;1.00;1.00;;;;;21.54;45.77;101092.95;110211;1264;20318;-41
2023/04/30 04:07:06;;;;;;;;;1.00;1.00;;;;;21.54;45.81;101097.27;110189;1264;19538;-42
2023/04/30 04:09:34;;;;;;;;;2.00;1.00;;;;;21.53;45.97;101099.52;110196;1265;19594;-41
2023/04/30 04:12:01;;;;;;;;;1.00;1.00;;;;;21.54;45.74;101103.83;110182;1264;18600;-44
2023/04/30 04:14:29;;;;;;;;;1.00;1.00;;;;;21.54;45.61;101105.08;110197;1249;23384;-40
2023/04/30 04:16:58;;;;;;;;;2.00;2.00;;;;;21.54;45.75;101107.13;110184;1264;18884;-42
2023/04/30 04:19:26;;;;;;;;;1.00;1.00;;;;;21.53;45.78;101108.09;110183;1265;20140;-41
2023/04/30 04:21:53;;;;;;;;;1.00;1.00;;;;;21.53;45.76;101109.89;110107;1265;21886;-41
2023/04/30 04:24:21;;;;;;;;;1.00;1.00;;;;;21.53;45.84;101116.27;110232;1264;20895;-41
2023/04/30 04:26:48;;;;;;;;;1.00;1.00;;;;;21.53;45.81;101117.98;110179;1265;19969;-41
2023/04/30 04:29:15;;;;;;;;;1.00;1.00;;;;;21.53;45.65;101119.71;110242;1264;19543;-41
2023/04/30 04:31:43;;;;;;;;;1.00;1.00;;;;;21.53;45.83;101120.88;110190;1264;18599;-41
2023/04/30 04:34:10;;;;;;;;;1.00;1.00;;;;;21.52;45.74;101126.39;110166;1265;18785;-41
2023/04/30 04:36:38;;;;;;;;;1.50;1.50;;;;;21.53;45.64;101133.52;110160;1265;19328;-41
2023/04/30 04:39:05;;;;;;;;;1.00;1.00;;;;;21.55;45.57;101136.11;110161;1264;18417;-41
2023/04/30 04:41:33;;;;;;;;;1.00;1.00;;;;;21.56;45.62;101138.17;110138;1264;18600;-42
2023/04/30 04:44:02;;;;;;;;;1.00;1.00;;;;;21.56;45.57;101146.25;110141;1264;19715;-41
2023/04/30 04:46:29;;;;;;;;;2.00;1.00;;;;;21.56;45.55;101144.52;110207;1264;19532;-44
2023/04/30 04:48:57;;;;;;;;;1.67;1.67;;;;;21.57;45.63;101147.34;110229;1264;19307;-41
2023/04/30 04:51:24;;;;;;;;;1.00;1.00;;;;;21.57;45.60;101147.25;110177;1264;19405;-42
2023/04/30 04:53:51;;;;;;;;;1.00;1.00;;;;;21.57;45.74;101148.67;110190;1265;18543;-41
2023/04/30 04:56:19;;;;;;;;;1.00;1.00;;;;;21.58;45.71;101154.58;110025;1264;20034;-43
2023/04/30 04:58:46;;;;;;;;;2.00;2.00;;;;;21.60;45.62;101154.64;110223;1265;19354;-43
2023/04/30 05:01:14;;;;;;;;;1.00;1.00;;;;;21.62;45.81;101155.83;110190;1264;18418;-41
2023/04/30 05:03:41;;;;;;;;;1.00;1.00;;;;;21.64;46.08;101156.20;110194;1248;20044;-41
2023/04/30 05:06:09;;;;;;;;;2.00;1.00;;;;;21.65;46.19;101165.72;110193;1250;23370;-42
2023/04/30 05:08:37;;;;;;;;;1.00;1.00;;;;;21.67;46.23;101169.33;110186;1251;19513;-41
2023/04/30 05:11:04;;;;;;;;;1.00;1.00;;;;;21.66;46.24;101171.20;110208;1250;22267;-42
2023/04/30 05:13:32;;;;;;;;;1.00;1.00;;;;;21.67;46.56;101176.42;110181;1264;19272;-41
2023/04/30 05:15:59;;;;;;;;;2.00;2.00;;;;;21.66;46.52;101173.27;110231;1264;18320;-42
2023/04/30 05:18:27;;;;;;;;;1.00;1.00;;;;;21.67;46.55;101182.23;110192;1251;20085;-40
2023/04/30 05:20:54;;;;;;;;;1.00;1.00;;;;;21.68;46.60;101179.92;110161;1251;21119;-42
2023/04/30 05:23:21;;;;;;;;;1.00;1.00;;;;;21.68;46.61;101182.80;110214;1264;18354;-41
2023/04/30 05:25:49;;;;;;;;;2.00;2.00;;;;;21.68;46.67;101187.77;110222;1264;19950;-41
2023/04/30 05:28:16;;;;;;;;;1.00;1.00;;;;;21.68;46.81;101188.29;110256;1251;22223;-41
2023/04/30 05:30:44;;;;;;;;;1.00;1.00;;;;;21.68;46.70;101191.56;110243;1264;18379;-41
2023/04/30 05:33:11;;;;;;;;;1.00;1.00;;;;;21.69;46.73;101198.48;110197;1250;18615;-41
2023/04/30 05:35:39;;;;;;;;;2.00;1.00;;;;;21.70;46.84;101200.27;110240;1259;19337;-40
2023/04/30 05:38:06;;;;;;;;;1.00;1.00;;;;;21.71;46.85;101200.13;110192;1264;18441;-40
2023/04/30 05:40:34;;;;;;;;;2.00;1.50;;;;;21.72;46.64;101204.05;110144;1264;18497;-42
2023/04/30 05:43:01;;;;;;;;;1.00;1.00;;;;;21.72;46.83;101206.37;110222;1250;20850;-42
2023/04/30 05:45:29;;;;;;;;;1.00;1.00;;;;;21.75;46.75;101210.37;110233;1250;23210;-40
2023/04/30 05:47:56;;;;;;;;;1.00;1.00;;;;;21.76;46.65;101210.77;110201;1249;22258;-41
2023/04/30 05:50:24;;;;;;;;;2.00;2.00;;;;;21.79;46.71;101212.28;110139;1265;19352;-41
2023/04/30 05:52:51;;;;;;;;;2.00;2.00;;;;;21.83;46.96;101215.87;110217;1264;21869;-42
2023/04/30 05:55:19;;;;;;;;;1.00;1.00;;;;;21.87;46.74;101218.89;110220;1265;18634;-41
2023/04/30 05:57:46;;;;;;;;;1.00;1.00;;;;;21.89;46.69;101217.36;110162;1251;20793;-41
2023/04/30 06:00:14;;;;;;;;;2.00;2.00;;;;;21.91;46.71;101227.69;110160;1264;19607;-41
2023/04/30 06:02:42;;;;;;;;;2.00;2.00;;;;;21.92;46.72;101224.45;110189;1250;21434;-40
2023/04/30 06:05:10;;;;;;;;;2.00;2.00;;;;;21.99;46.82;101225.33;110204;1256;19416;-42
2023/04/30 06:07:37;;;;;;;;;4.00;4.00;;;;;22.06;47.10;101229.48;110213;1265;18504;-39
2023/04/30 06:10:05;;;;;;;;;4.00;2.00;;;;;22.08;47.17;101235.34;110226;1264;20225;-40
2023/04/30 06:12:32;;;;;;;;;4.00;4.00;;;;;22.10;47.22;101235.42;110188;1265;19354;-41
2023/04/30 06:15:00;;;;;;;;;3.00;2.00;;;;;22.12;47.33;101240.23;110163;1264;19762;-42
2023/04/30 06:17:27;;;;;;;;;4.00;2.00;;;;;22.14;47.43;101238.06;110175;1264;19983;-43
2023/04/30 06:19:57;;;;;;;;;1.00;1.00;;;;;22.17;47.37;101240.52;110185;1250;20736;-41
2023/04/30 06:22:24;;;;;;;;;1.50;1.50;;;;;22.18;47.29;101241.08;110179;1264;20615;-41
2023/04/30 06:24:52;;;;;;;;;2.00;2.00;;;;;22.20;47.33;101243.78;110167;1264;19976;-41
2023/04/30 06:27:19;;;;;;;;;4.00;2.00;;;;;22.22;47.40;101246.68;110172;1264;19514;-42
2023/04/30 06:29:46;;;;;;;;;2.00;2.00;;;;;22.28;47.45;101253.22;110250;1251;19676;-39
2023/04/30 06:32:14;;;;;;;;;1.00;1.00;;;;;22.28;47.29;101252.80;110166;1264;20015;-39
2023/04/30 06:34:41;;;;;;;;;2.00;2.00;;;;;22.27;47.25;101251.30;110088;1251;22031;-38
2023/04/30 06:37:09;;;;;;;;;6.00;4.00;;;;;22.28;47.48;101250.45;110113;1251;19700;-38
2023/04/30 06:39:36;;;;;;;;;70.33;48.33;;;;;22.29;47.45;101252.00;110146;1251;20050;-42
2023/04/30 06:42:04;;;;;;;;;80.00;59.00;;;;;22.26;47.10;101250.70;110261;1251;20856;-40
2023/04/30 06:44:31;;;;;;;;;98.00;71.00;;;;;22.25;46.62;101253.94;110241;1264;22348;-42
2023/04/30 06:46:59;;;;;;;;;87.00;64.00;;;;;22.22;46.67;101253.66;110208;1264;19994;-39
2023/04/30 06:49:26;;;;;;;;;72.00;53.00;;;;;22.22;46.58;101258.44;110211;1264;19564;-37
2023/04/30 06:51:54;;;;;;;;;61.00;45.00;;;;;22.22;46.81;101256.63;110240;1264;19771;-40
2023/04/30 06:54:22;;;;;;;;;41.50;35.50;;;;;22.23;46.57;101261.99;110261;1265;18685;-39
2023/04/30 06:56:50;;;;;;;;;41.00;35.00;;;;;22.25;46.63;101265.04;110259;1264;20807;-40
2023/04/30 06:59:18;;;;;;;;;42.00;35.00;;;;;22.25;46.83;101263.54;110179;1250;18774;-40
2023/04/30 07:01:45;;;;;;;;;39.00;28.00;;;;;22.26;46.92;101262.16;110168;1264;20305;-40
2023/04/30 07:04:13;;;;;;;;;24.50;22.00;;;;;22.29;46.89;101268.58;110211;1264;19425;-39
2023/04/30 07:06:40;;;;;;;;;33.00;29.00;;;;;22.30;47.08;101267.55;110188;1256;18587;-41
2023/04/30 07:09:08;;;;;;;;;19.00;18.00;;;;;22.27;46.76;101271.69;110190;1264;22858;-41
2023/04/30 07:11:35;;;;;;;;;17.00;14.50;;;;;22.20;46.49;101273.84;110217;1264;19384;-41
2023/04/30 07:14:03;;;;;;;;;15.00;14.00;;;;;22.10;45.83;101272.63;110154;1265;18589;-41
2023/04/30 07:16:30;;;;;;;;;16.67;13.67;;;;;22.02;44.36;101271.72;110111;1265;20134;-42
2023/04/30 07:18:58;;;;;;;;;15.00;12.00;;;;;21.96;42.90;101274.79;110237;1250;20896;-41
2023/04/30 07:21:26;;;;;;;;;12.00;11.00;;;;;21.92;41.64;101279.47;110289;1256;22350;-41
2023/04/30 07:23:54;;;;;;;;;9.00;8.00;;;;;21.86;40.81;101278.83;110167;1264;21348;-41
2023/04/30 07:26:23;;;;;;;;;7.50;7.00;;;;;21.84;40.41;101281.77;110196;1264;19378;-42
2023/04/30 07:28:51;;;;;;;;;8.50;8.50;;;;;21.79;39.63;101277.56;110251;1265;19964;-40
2023/04/30 07:31:19;;;;;;;;;8.67;7.67;;;;;21.72;38.33;101279.45;110165;1251;20043;-42
2023/04/30 07:33:47;;;;;;;;;8.50;6.50;;;;;21.66;38.12;101277.84;110173;1249;21079;-40
2023/04/30 07:36:15;;;;;;;;;5.00;5.00;;;;;21.66;38.09;101279.65;110192;1265;19572;-40
2023/04/30 07:38:43;;;;;;;;;7.00;5.00;;;;;21.79;38.37;101286.23;110202;1264;18638;-39
2023/04/30 07:41:10;;;;;;;;;4.00;4.00;;;;;21.89;38.69;101287.58;110167;1249;22863;-40
2023/04/30 07:43:38;;;;;;;;;4.00;4.00;;;;;22.00;39.05;101288.96;110228;1264;18287;-39
2023/04/30 07:46:05;;;;;;;;;4.00;4.00;;;;;22.05;39.36;101283.45;110246;1258;22216;-39
2023/04/30 07:48:32;;;;;;;;;7.67;6.33;;;;;22.09;39.39;101288.45;110240;1257;22461;-39
2023/04/30 07:51:00;;;;;;;;;4.00;4.00;;;;;22.11;39.65;101285.09;110239;1264;20843;-40
2023/04/30 07:53:28;;;;;;;;;5.00;5.00;;;;;22.12;39.96;101294.84;110222;1264;22354;-41
2023/04/30 07:55:55;;;;;;;;;5.00;5.00;;;;;21.79;38.68;101294.36;110236;1264;19625;-39
2023/04/30 07:58:23;;;;;;;;;4.00;4.00;;;;;21.47;38.02;101294.98;110125;1250;19845;-40
2023/04/30 08:00:50;;;;;;;;;7.00;7.00;;;;;21.19;37.13;101301.27;110151;1264;20133;-41
2023/04/30 08:03:18;;;;;;;;;5.00;5.00;;;;;21.03;36.43;101307.58;110283;1264;20749;-39
2023/04/30 08:05:46;;;;;;;;;8.00;8.00;;;;;21.03;35.83;101306.96;110118;1256;22617;-42
2023/04/30 08:08:13;;;;;;;;;10.00;8.00;;;;;20.94;35.10;101306.21;110172;1264;19918;-39
2023/04/30 08:10:41;;;;;;;;;7.00;7.00;;;;;20.78;34.74;101308.63;110161;1264;19357;-39
2023/04/30 08:13:09;;;;;;;;;4.00;4.00;;;;;20.62;34.66;101315.77;110195;1265;18989;-39
2023/04/30 08:15:36;;;;;;;;;7.00;7.00;;;;;20.63;34.23;101319.88;110281;1264;20164;-38
2023/04/30 08:18:04;;;;;;;;;5.00;5.00;;;;;20.68;34.20;101322.21;110249;1250;18994;-38
2023/04/30 08:20:32;;;;;;;;;7.50;6.50;;;;;20.68;33.74;101319.11;110216;1249;19665;-39
2023/04/30 08:22:59;;;;;;;;;5.00;5.00;;;;;20.63;33.51;101321.50;110198;1264;20226;-39
2023/04/30 08:25:27;;;;;;;;;5.67;4.00;;;;;20.68;33.44;101325.46;110226;1264;19367;-39
2023/04/30 08:27:54;;;;;;;;;5.00;5.00;;;;;20.68;33.31;101325.98;109997;1264;263566;-40
2023/04/30 08:30:22;;;;;;;;;4.00;4.00;;;;;20.67;33.18;101325.97;110193;1256;22082;-39
2023/04/30 08:32:49;;;;;;;;;4.50;4.00;;;;;20.70;33.25;101322.77;110185;1251;21081;-38
2023/04/30 08:35:17;;;;;;;;;4.00;4.00;;;;;20.68;33.29;101325.71;110196;1265;22127;-38
2023/04/30 08:37:44;;;;;;;;;4.00;4.00;;;;;20.58;32.95;101324.57;110199;1265;18620;-41
2023/04/30 08:40:12;;;;;;;;;4.00;4.00;;;;;20.49;32.69;101333.28;110198;1250;22326;-40
2023/04/30 08:42:40;;;;;;;;;5.00;5.00;;;;;20.46;32.22;101332.67;110179;1264;22767;-39
2023/04/30 08:45:08;;;;;;;;;3.50;3.50;;;;;20.41;31.97;101331.35;110190;1250;22153;-38
2023/04/30 08:47:35;;;;;;;;;4.00;4.00;;;;;20.44;31.85;101335.91;110213;1251;20836;-40
2023/04/30 08:50:03;;;;;;;;;5.00;4.00;;;;;20.52;31.76;101335.88;110189;1265;22299;-41
2023/04/30 08:52:30;;;;;;;;;4.00;4.00;;;;;20.56;31.86;101335.66;110252;1250;20048;-40
2023/04/30 08:54:57;;;;;;;;;5.00;4.00;;;;;20.53;31.33;101339.78;110220;1264;19245;-38
2023/04/30 08:57:25;;;;;;;;;5.00;4.00;;;;;20.50;30.99;101336.09;110210;1264;19562;-39
2023/04/30 08:59:52;;;;;;;;;3.00;2.00;;;;;20.47;30.79;101337.86;110260;1251;20088;-39
2023/04/30 09:02:20;;;;;;;;;5.00;5.00;;;;;20.38;30.81;101336.57;110240;1250;20894;-41
2023/04/30 09:04:47;;;;;;;;;4.50;4.00;;;;;20.38;30.75;101338.02;110164;1264;18526;-39
2023/04/30 09:07:15;;;;;;;;;2.00;2.00;;;;;20.38;30.82;101336.35;110183;1264;18746;-39
2023/04/30 09:09:42;;;;;;;;;2.00;2.00;;;;;20.44;31.02;101336.30;110192;1264;20693;-39
2023/04/30 09:12:09;;;;;;;;;4.00;4.00;;;;;20.49;31.30;101336.96;110196;1250;19639;-39
2023/04/30 09:14:39;;;;;;;;;5.50;4.00;;;;;20.45;31.49;101343.15;110201;1264;20034;-39
2023/04/30 09:17:07;;;;;;;;;2.00;2.00;;;;;20.43;31.29;101337.35;110185;1265;19341;-38
2023/04/30 09:19:35;;;;;;;;;7.00;7.00;;;;;20.44;30.96;101341.23;110184;1250;20820;-38
2023/04/30 09:22:02;;;;;;;;;6.00;5.00;;;;;20.49;31.12;101342.71;110222;1264;19894;-39
2023/04/30 09:24:30;;;;;;;;;7.00;6.00;;;;;20.52;30.98;101343.32;110166;1250;19680;-39
2023/04/30 09:26:57;;;;;;;;;4.33;4.00;;;;;20.50;31.09;101345.55;110153;1265;19656;-39
2023/04/30 09:29:25;;;;;;;;;5.00;4.00;;;;;20.38;31.11;101350.95;110287;1265;20210;-39
2023/04/30 09:31:52;;;;;;;;;5.00;5.00;;;;;20.37;30.88;101346.48;110266;1264;21762;-39
2023/04/30 09:34:20;;;;;;;;;4.00;4.00;;;;;20.39;30.86;101349.40;110285;1264;19633;-39
2023/04/30 09:36:47;;;;;;;;;4.00;4.00;;;;;20.38;30.82;101352.57;110214;1251;22158;-40
2023/04/30 09:39:16;;;;;;;;;4.00;4.00;;;;;20.30;31.11;101359.00;110174;1252;19790;-39
2023/04/30 09:41:43;;;;;;;;;2.50;2.50;;;;;20.28;31.03;101357.45;110193;1250;20011;-39
2023/04/30 09:44:11;;;;;;;;;4.00;4.00;;;;;20.33;31.20;101353.40;110216;1249;20061;-39
2023/04/30 09:46:38;;;;;;;;;7.00;4.50;;;;;20.44;30.96;101356.35;110192;1251;20821;-40
2023/04/30 09:49:06;;;;;;;;;4.00;4.00;;;;;20.38;30.44;101363.68;110202;1264;19796;-40
2023/04/30 09:51:34;;;;;;;;;4.00;4.00;;;;;20.34;30.27;101353.04;110188;1249;18666;-39
2023/04/30 09:54:01;;;;;;;;;4.00;4.00;;;;;20.28;29.82;101354.67;110201;1248;19360;-39
2023/04/30 09:56:29;;;;;;;;;3.50;3.50;;;;;20.26;29.35;101359.10;110195;1251;19853;-39
2023/04/30 09:58:57;;;;;;;;;5.00;4.00;;;;;20.34;29.46;101355.02;110175;1265;22654;-39
2023/04/30 10:01:25;;;;;;;;;6.00;6.00;;;;;20.38;29.38;101357.11;110180;1250;20772;-39
2023/04/30 10:03:52;;;;;;;;;4.00;4.00;;;;;20.29;29.05;101360.05;110142;1248;22203;-39
2023/04/30 10:06:20;;;;;;;;;6.00;6.00;;;;;20.18;29.16;101360.48;110159;1265;22689;-40
2023/04/30 10:08:48;;;;;;;;;5.00;5.00;;;;;20.24;29.58;101357.80;110182;1248;20548;-39
2023/04/30 10:11:16;;;;;;;;;4.00;4.00;;;;;20.29;29.49;101353.83;110155;1264;18598;-39
2023/04/30 10:13:43;;;;;;;;;3.67;3.33;;;;;20.24;29.53;101353.30;110106;1264;21591;-38
2023/04/30 10:16:11;;;;;;;;;6.00;6.00;;;;;20.23;29.52;101345.73;110163;1251;20910;-38
2023/04/30 10:18:38;;;;;;;;;3.33;3.33;;;;;20.18;29.26;101344.14;110154;1264;18423;-38
2023/04/30 10:21:09;;;;;;;;;6.00;4.67;;;;;20.21;29.52;101337.88;110138;1264;20118;-39
2023/04/30 10:23:36;;;;;;;;;4.00;4.00;;;;;20.24;29.60;101333.70;110164;1264;20726;-39
2023/04/30 10:26:03;;;;;;;;;4.00;4.00;;;;;20.21;29.99;101334.16;110173;1256;20027;-39
2023/04/30 10:28:31;;;;;;;;;5.00;5.00;;;;;20.18;30.03;101342.54;110205;1264;20043;-39
2023/04/30 10:30:58;;;;;;;;;6.00;6.00;;;;;20.12;30.26;101336.92;110162;1264;20712;-38
2023/04/30 10:33:26;;;;;;;;;5.00;3.50;;;;;20.17;30.10;101336.27;110169;1264;19704;-39
2023/04/30 10:35:53;;;;;;;;;4.00;4.00;;;;;20.12;30.19;101336.80;110161;1264;18562;-38
2023/04/30 10:38:21;;;;;;;;;4.00;4.00;;;;;20.23;30.23;101333.23;110202;1252;20960;-38
2023/04/30 10:40:48;;;;;;;;;5.00;4.00;;;;;20.23;30.17;101331.61;110201;1264;22448;-39
2023/04/30 10:43:17;;;;;;;;;4.00;4.00;;;;;20.17;29.94;101329.36;110172;1264;18794;-39
2023/04/30 10:45:44;;;;;;;;;6.00;6.00;;;;;20.09;29.86;101331.99;110186;1264;23018;-37
2023/04/30 10:48:12;;;;;;;;;6.00;6.00;;;;;20.15;29.68;101322.28;110190;1259;18377;-41
2023/04/30 10:50:40;;;;;;;;;6.00;6.00;;;;;20.07;29.46;101331.70;110215;1256;18612;-38
2023/04/30 10:53:07;;;;;;;;;4.00;4.00;;;;;20.03;29.67;101329.94;110191;1250;19351;-38
2023/04/30 10:55:40;;;;;;;;;4.00;4.00;;;;;20.05;29.70;101326.59;110199;1264;18418;-41
2023/04/30 10:58:07;;;;;;;;;6.00;4.67;;;;;20.09;30.02;101326.77;110190;1251;22092;-41
2023/04/30 11:00:35;;;;;;;;;4.00;4.00;;;;;20.09;29.85;101322.61;110209;1264;19360;-39
2023/04/30 11:03:03;;;;;;;;;3.50;3.00;;;;;20.01;29.88;101326.08;110235;1264;19936;-39
2023/04/30 11:05:30;;;;;;;;;6.50;6.00;;;;;20.02;29.71;101332.58;110266;1256;20568;-39
2023/04/30 11:07:57;;;;;;;;;3.67;3.67;;;;;20.08;29.82;101327.42;110266;1251;20787;-39
2023/04/30 11:10:25;;;;;;;;;5.00;4.00;;;;;20.07;29.68;101325.83;110200;1264;18345;-39
2023/04/30 11:12:53;;;;;;;;;6.00;6.00;;;;;20.10;29.70;101330.11;110196;1251;20145;-38
2023/04/30 11:15:21;;;;;;;;;4.00;4.00;;;;;20.11;29.67;101329.29;110198;1248;20832;-39
2023/04/30 11:17:49;;;;;;;;;3.67;3.67;;;;;20.09;29.51;101332.71;110216;1253;20082;-39